createdAt,value
2018-11-14T00:01:06.711Z,80.30
2018-11-14T00:03:36.506Z,80.10
2018-11-14T00:06:06.498Z,80.00
2018-11-14T00:08:36.190Z,79.80
2018-11-14T00:11:07.170Z,80.00
2018-11-14T00:13:37.392Z,79.80
2018-11-14T00:16:08.007Z,79.80
2018-11-14T00:18:39.024Z,80.50
2018-11-14T00:21:09.657Z,79.80
2018-11-14T00:23:38.922Z,79.80
2018-11-14T00:26:08.932Z,80.00
2018-11-14T00:28:38.652Z,80.10
2018-11-14T00:31:08.916Z,80.50
2018-11-14T00:33:38.724Z,80.70
2018-11-14T00:36:08.047Z,81.70
2018-11-14T00:38:37.347Z,81.00
2018-11-14T00:41:06.778Z,81.10
2018-11-14T00:43:36.050Z,81.00
2018-11-14T00:46:07.218Z,81.00
2018-11-14T00:48:36.437Z,81.00
2018-11-14T00:51:07.752Z,80.80
2018-11-14T00:53:38.790Z,80.60
2018-11-14T00:56:07.999Z,80.50
2018-11-14T00:58:37.324Z,80.40
2018-11-14T01:01:07.047Z,80.20
2018-11-14T01:03:36.237Z,80.20
2018-11-14T01:06:05.685Z,80.20
2018-11-14T01:08:35.557Z,80.10
2018-11-14T01:11:06.636Z,80.30
2018-11-14T01:13:37.715Z,80.50
2018-11-14T01:16:06.995Z,80.70
2018-11-14T01:18:37.628Z,80.80
2018-11-14T01:21:08.881Z,80.90
2018-11-14T01:23:38.924Z,81.10
2018-11-14T01:26:09.208Z,81.20
2018-11-14T01:33:05.999Z,81.30
2018-11-14T01:35:35.392Z,81.20
2018-11-14T01:38:04.963Z,81.10
2018-11-14T01:40:34.115Z,81.10
2018-11-14T01:43:03.294Z,81.00
2018-11-14T01:45:32.996Z,81.20
2018-11-14T01:48:02.208Z,81.30
2018-11-14T01:50:31.344Z,81.50
2018-11-14T01:53:00.896Z,82.40
2018-11-14T01:55:30.040Z,81.60
2018-11-14T01:57:59.196Z,81.60
2018-11-14T02:00:28.363Z,81.60
2018-11-14T02:02:57.909Z,81.70
2018-11-14T02:05:27.326Z,81.70
2018-11-14T02:07:56.470Z,81.90
2018-11-14T02:10:26.061Z,82.20
2018-11-14T02:12:55.372Z,82.40
2018-11-14T02:15:25.196Z,82.40
2018-11-14T02:17:54.395Z,82.40
2018-11-14T02:20:23.581Z,82.40
2018-11-14T02:22:52.720Z,82.60
2018-11-14T02:25:22.016Z,82.60
2018-11-14T02:27:51.223Z,82.80
2018-11-14T02:30:21.933Z,83.00
2018-11-14T02:32:51.512Z,83.10
2018-11-14T02:35:21.073Z,83.10
2018-11-14T02:37:50.462Z,83.20
2018-11-14T02:40:20.901Z,83.10
2018-11-14T02:42:50.227Z,83.10
2018-11-14T02:45:19.442Z,82.90
2018-11-14T02:47:48.673Z,82.90
2018-11-14T02:50:18.903Z,83.00
2018-11-14T02:52:48.753Z,83.10
2018-11-14T02:55:18.439Z,83.20
2018-11-14T02:57:48.302Z,83.20
2018-11-14T03:00:18.800Z,83.20
2018-11-14T03:02:48.123Z,83.20
2018-11-14T03:05:17.383Z,83.30
2018-11-14T03:07:47.824Z,83.30
2018-11-14T03:10:19.649Z,84.10
2018-11-14T03:12:49.688Z,83.30
2018-11-14T03:15:22.628Z,83.00
2018-11-14T03:17:52.130Z,83.00
2018-11-14T03:20:22.528Z,82.90
2018-11-14T03:22:51.925Z,83.10
2018-11-14T03:25:21.214Z,82.90
2018-11-14T03:27:50.691Z,82.90
2018-11-14T03:30:20.365Z,83.00
2018-11-14T03:32:49.509Z,83.10
2018-11-14T03:35:18.699Z,83.20
2018-11-14T03:37:48.109Z,83.40
2018-11-14T03:40:17.772Z,83.50
2018-11-14T03:42:46.870Z,83.40
2018-11-14T03:45:16.314Z,84.30
2018-11-14T03:47:45.468Z,83.50
2018-11-14T03:50:14.667Z,83.70
2018-11-14T03:52:44.020Z,83.80
2018-11-14T03:55:13.328Z,83.70
2018-11-14T03:57:42.934Z,83.80
2018-11-14T04:00:14.523Z,83.70
2018-11-14T04:02:45.128Z,83.70
2018-11-14T04:05:14.369Z,83.80
2018-11-14T04:07:43.817Z,84.70
2018-11-14T04:10:13.815Z,84.00
2018-11-14T04:12:43.145Z,84.10
2018-11-14T04:15:13.451Z,84.10
2018-11-14T04:17:43.428Z,84.10
2018-11-14T04:20:15.091Z,84.10
2018-11-14T04:22:44.628Z,84.30
2018-11-14T04:25:19.621Z,84.30
2018-11-14T04:27:49.356Z,84.10
2018-11-14T04:30:20.770Z,84.00
2018-11-14T04:32:50.153Z,83.90
2018-11-14T04:35:20.343Z,84.20
2018-11-14T04:37:50.028Z,84.40
2018-11-14T04:40:21.316Z,84.00
2018-11-14T04:42:50.536Z,84.20
2018-11-14T04:45:21.092Z,84.20
2018-11-14T04:47:50.503Z,84.10
2018-11-14T04:50:21.616Z,84.40
2018-11-14T04:52:51.179Z,84.20
2018-11-14T04:55:22.028Z,84.30
2018-11-14T04:57:51.545Z,84.60
2018-11-14T05:00:22.133Z,84.50
2018-11-14T05:02:51.707Z,84.60
2018-11-14T05:05:22.344Z,84.40
2018-11-14T05:07:51.499Z,84.10
2018-11-14T05:10:22.665Z,84.30
2018-11-14T05:12:52.392Z,84.20
2018-11-14T05:15:23.015Z,84.50
2018-11-14T05:17:52.565Z,84.10
2018-11-14T05:20:22.630Z,84.80
2018-11-14T05:22:52.055Z,84.50
2018-11-14T05:25:21.375Z,84.30
2018-11-14T05:27:50.577Z,84.70
2018-11-14T05:30:21.166Z,84.50
2018-11-14T05:32:51.819Z,85.00
2018-11-14T05:35:20.962Z,84.70
2018-11-14T05:37:50.672Z,84.50
2018-11-14T05:40:21.437Z,84.60
2018-11-14T05:42:51.551Z,84.50
2018-11-14T05:45:23.081Z,84.70
2018-11-14T05:47:52.741Z,84.70
2018-11-14T05:50:22.673Z,84.70
2018-11-14T05:52:51.798Z,84.60
2018-11-14T05:55:21.109Z,84.40
2018-11-14T05:57:50.427Z,84.20
2018-11-14T06:00:30.420Z,84.20
2018-11-14T06:03:00.632Z,84.20
2018-11-14T06:05:29.790Z,84.00
2018-11-14T06:07:58.994Z,83.70
2018-11-14T06:10:28.158Z,84.60
2018-11-14T06:12:57.322Z,84.10
2018-11-14T06:15:27.416Z,83.90
2018-11-14T06:17:57.616Z,84.10
2018-11-14T06:20:27.363Z,84.10
2018-11-14T06:22:56.842Z,84.00
2018-11-14T06:25:34.152Z,84.00
2018-11-14T06:28:04.533Z,84.20
2018-11-14T06:30:34.565Z,84.40
2018-11-14T06:33:04.882Z,84.70
2018-11-14T06:35:34.652Z,84.90
2018-11-14T06:38:03.807Z,85.00
2018-11-14T06:40:33.175Z,85.10
2018-11-14T06:43:02.307Z,85.30
2018-11-14T06:45:32.661Z,85.40
2018-11-14T06:48:03.036Z,85.30
2018-11-14T06:50:32.190Z,85.50
2018-11-14T06:53:03.293Z,85.50
2018-11-14T06:55:32.491Z,85.70
2018-11-14T06:58:01.914Z,85.70
2018-11-14T07:00:34.946Z,85.70
2018-11-14T07:03:06.540Z,85.70
2018-11-14T07:05:36.345Z,85.90
2018-11-14T07:08:06.038Z,86.10
2018-11-14T07:10:36.478Z,86.20
2018-11-14T07:13:07.607Z,86.00
2018-11-14T07:15:37.767Z,86.10
2018-11-14T07:18:07.897Z,86.20
2018-11-14T07:20:38.895Z,86.30
2018-11-14T07:23:08.158Z,86.20
2018-11-14T07:25:37.442Z,86.30
2018-11-14T07:28:06.717Z,86.30
2018-11-14T07:30:36.375Z,86.60
2018-11-14T07:33:10.014Z,86.20
2018-11-14T07:35:39.257Z,86.30
2018-11-14T07:38:43.650Z,86.70
2018-11-14T07:41:15.298Z,86.90
2018-11-14T07:43:45.316Z,87.00
2018-11-14T07:46:14.797Z,87.00
2018-11-14T07:48:45.293Z,86.90
2018-11-14T07:51:14.439Z,86.80
2018-11-14T07:53:43.607Z,87.10
2018-11-14T07:56:12.757Z,87.00
2018-11-14T07:58:42.385Z,87.20
2018-11-14T08:01:11.816Z,86.70
2018-11-14T08:03:41.770Z,87.10
2018-11-14T08:06:13.844Z,86.80
2018-11-14T08:08:45.687Z,87.20
2018-11-14T08:11:16.931Z,87.10
2018-11-14T08:13:49.471Z,87.20
2018-11-14T08:16:19.114Z,87.40
2018-11-14T08:18:48.642Z,87.20
2018-11-14T08:21:17.869Z,86.80
2018-11-14T08:23:47.047Z,87.30
2018-11-14T08:26:16.993Z,87.20
2018-11-14T08:28:46.359Z,87.00
2018-11-14T08:31:15.606Z,87.20
2018-11-14T08:33:44.862Z,86.80
2018-11-14T08:36:14.135Z,86.80
2018-11-14T08:38:43.255Z,87.20
2018-11-14T08:41:12.405Z,87.50
2018-11-14T08:43:41.835Z,86.90
2018-11-14T08:46:11.071Z,86.70
2018-11-14T08:48:40.851Z,87.20
2018-11-14T08:51:09.963Z,87.20
2018-11-14T08:53:39.409Z,86.90
2018-11-14T08:56:08.498Z,86.60
2018-11-14T08:58:37.897Z,86.20
2018-11-14T09:01:07.255Z,86.20
2018-11-14T09:03:36.976Z,86.60
2018-11-14T09:06:06.774Z,86.70
2018-11-14T09:08:35.911Z,87.10
2018-11-14T09:11:05.681Z,86.70
2018-11-14T09:13:34.801Z,86.80
2018-11-14T09:16:03.979Z,86.80
2018-11-14T09:18:33.403Z,87.00
2018-11-14T09:21:02.564Z,87.20
2018-11-14T09:23:31.629Z,87.00
2018-11-14T09:26:00.781Z,87.20
2018-11-14T09:28:29.897Z,86.90
2018-11-14T09:30:59.018Z,86.90
2018-11-14T09:33:28.188Z,86.80
2018-11-14T09:35:57.366Z,87.00
2018-11-14T09:38:26.488Z,86.90
2018-11-14T09:40:55.689Z,86.60
2018-11-14T09:43:25.045Z,86.80
2018-11-14T09:45:54.352Z,87.00
2018-11-14T09:48:24.136Z,86.80
2018-11-14T09:50:53.311Z,86.70
2018-11-14T09:53:22.743Z,86.30
2018-11-14T09:55:52.062Z,86.70
2018-11-14T09:58:21.348Z,86.10
2018-11-14T10:00:50.550Z,86.40
2018-11-14T10:03:20.813Z,86.50
2018-11-14T10:05:49.970Z,86.50
2018-11-14T10:10:13.699Z,86.60
2018-11-14T10:12:42.822Z,87.00
2018-11-14T10:15:15.334Z,86.90
2018-11-14T10:17:45.271Z,86.80
2018-11-14T10:20:15.619Z,86.60
2018-11-14T10:22:45.323Z,86.70
2018-11-14T10:25:15.163Z,86.60
2018-11-14T10:27:45.315Z,86.40
2018-11-14T10:30:17.756Z,86.30
2018-11-14T10:32:48.868Z,86.60
2018-11-14T10:35:18.163Z,86.80
2018-11-14T10:37:47.395Z,86.60
2018-11-14T10:40:20.127Z,85.30
2018-11-14T10:42:50.934Z,85.90
2018-11-14T10:45:21.650Z,86.60
2018-11-14T10:47:51.564Z,86.70
2018-11-14T10:50:22.611Z,87.10
2018-11-14T10:52:52.824Z,86.80
2018-11-14T10:55:22.389Z,87.50
2018-11-14T10:57:52.307Z,86.80
2018-11-14T11:00:29.835Z,86.50
2018-11-14T11:03:05.248Z,86.40
2018-11-14T11:05:39.684Z,86.60
2018-11-14T11:08:14.507Z,86.30
2018-11-14T11:10:48.913Z,86.30
2018-11-14T11:13:23.385Z,85.90
2018-11-14T11:15:57.828Z,86.20
2018-11-14T11:18:34.798Z,86.20
2018-11-14T11:21:03.944Z,86.10
2018-11-14T11:23:33.112Z,86.10
2018-11-14T11:26:02.237Z,86.20
2018-11-14T11:28:31.416Z,86.10
2018-11-14T11:31:00.766Z,85.50
2018-11-14T11:33:30.426Z,85.90
2018-11-14T11:35:59.787Z,86.10
2018-11-14T11:38:28.980Z,86.20
2018-11-14T11:40:58.091Z,86.00
2018-11-14T11:43:27.638Z,86.00
2018-11-14T11:45:56.721Z,86.00
2018-11-14T11:48:25.916Z,86.00
2018-11-14T11:50:55.095Z,86.00
2018-11-14T11:53:24.308Z,86.20
2018-11-14T11:55:53.418Z,85.60
2018-11-14T11:58:22.841Z,85.80
2018-11-14T12:00:52.535Z,86.00
2018-11-14T12:03:22.255Z,85.90
2018-11-14T12:05:53.688Z,86.20
2018-11-14T12:08:25.420Z,86.10
2018-11-14T12:10:56.379Z,85.90
2018-11-14T12:13:27.501Z,85.80
2018-11-14T12:15:57.416Z,85.90
2018-11-14T12:18:26.935Z,85.60
2018-11-14T12:20:56.037Z,85.80
2018-11-14T12:23:25.283Z,85.70
2018-11-14T12:25:54.407Z,85.50
2018-11-14T12:28:23.521Z,85.70
2018-11-14T12:30:53.257Z,85.70
2018-11-14T12:33:22.345Z,85.50
2018-11-14T12:35:51.648Z,85.60
2018-11-14T12:38:20.799Z,85.60
2018-11-14T12:40:49.887Z,85.40
2018-11-14T12:43:19.072Z,86.00
2018-11-14T12:45:49.196Z,85.30
2018-11-14T12:48:19.007Z,85.50
2018-11-14T12:50:48.183Z,85.70
2018-11-14T12:53:17.488Z,85.80
2018-11-14T12:55:46.636Z,85.70
2018-11-14T12:58:16.333Z,85.80
2018-11-14T13:00:45.422Z,85.70
2018-11-14T13:03:14.856Z,85.60
2018-11-14T13:05:43.991Z,85.80
2018-11-14T13:08:13.300Z,85.60
2018-11-14T13:10:42.398Z,85.70
2018-11-14T13:13:11.572Z,85.50
2018-11-14T13:15:41.056Z,85.50
2018-11-14T13:18:10.215Z,85.70
2018-11-14T13:20:40.015Z,85.60
2018-11-14T13:23:09.201Z,85.80
2018-11-14T13:25:38.926Z,85.50
2018-11-14T13:28:08.028Z,85.50
2018-11-14T13:30:38.379Z,85.60
2018-11-14T13:33:07.589Z,85.60
2018-11-14T13:35:36.780Z,85.60
2018-11-14T13:38:06.797Z,85.60
2018-11-14T13:40:36.052Z,85.50
2018-11-14T13:43:05.748Z,85.20
2018-11-14T13:45:35.566Z,85.50
2018-11-14T13:48:06.217Z,85.50
2018-11-14T13:50:36.301Z,85.70
2018-11-14T13:53:06.209Z,85.50
2018-11-14T13:55:35.516Z,85.90
2018-11-14T13:58:04.697Z,85.40
2018-11-14T14:00:33.928Z,85.10
2018-11-14T14:03:03.009Z,84.60
2018-11-14T14:05:32.182Z,84.90
2018-11-14T14:08:02.091Z,84.80
2018-11-14T14:10:32.408Z,85.30
2018-11-14T14:13:02.321Z,84.90
2018-11-14T14:15:31.464Z,84.80
2018-11-14T14:18:00.942Z,84.90
2018-11-14T14:20:30.632Z,84.70
2018-11-14T14:23:00.225Z,85.30
2018-11-14T14:25:30.175Z,84.80
2018-11-14T14:28:00.247Z,84.70
2018-11-14T14:30:30.062Z,84.90
2018-11-14T14:32:59.163Z,84.30
2018-11-14T14:35:28.259Z,84.60
2018-11-14T14:37:57.376Z,84.50
2018-11-14T14:40:26.624Z,84.50
2018-11-14T14:42:56.073Z,84.20
2018-11-14T14:45:26.310Z,84.10
2018-11-14T14:47:56.062Z,85.00
2018-11-14T14:50:26.404Z,84.10
2018-11-14T14:52:55.564Z,84.20
2018-11-14T14:55:25.510Z,84.10
2018-11-14T14:57:58.700Z,84.00
2018-11-14T15:00:28.547Z,83.90
2018-11-14T15:02:58.307Z,83.90
2018-11-14T15:05:27.512Z,84.00
2018-11-14T15:07:56.655Z,84.90
2018-11-14T15:10:25.998Z,84.10
2018-11-14T15:12:55.140Z,84.10
2018-11-14T15:15:24.300Z,84.10
2018-11-14T15:17:53.991Z,84.10
2018-11-14T15:20:24.576Z,83.90
2018-11-14T15:22:53.887Z,83.60
2018-11-14T15:25:24.164Z,83.30
2018-11-14T15:27:53.615Z,83.30
2018-11-14T15:30:25.090Z,83.40
2018-11-14T15:32:54.627Z,83.40
2018-11-14T15:35:24.960Z,83.50
2018-11-14T15:37:54.082Z,83.50
2018-11-14T15:40:24.987Z,83.70
2018-11-14T15:42:54.391Z,83.70
2018-11-14T15:45:26.913Z,83.80
2018-11-14T15:47:56.278Z,83.90
2018-11-14T15:50:27.672Z,83.80
2018-11-14T15:52:57.632Z,83.80
2018-11-14T15:55:27.230Z,83.70
2018-11-14T15:57:56.758Z,83.70
2018-11-14T16:00:28.314Z,83.70
2018-11-14T16:02:59.586Z,83.80
2018-11-14T16:05:30.693Z,83.80
2018-11-14T16:08:03.450Z,83.80
2018-11-14T16:10:36.193Z,83.80
2018-11-14T16:13:09.957Z,83.80
2018-11-14T16:15:40.131Z,83.80
2018-11-14T16:18:09.948Z,83.80
2018-11-14T16:20:39.801Z,83.60
2018-11-14T16:23:09.067Z,83.70
2018-11-14T16:25:38.544Z,83.60
2018-11-14T16:28:07.755Z,84.50
2018-11-14T16:30:37.975Z,83.60
2018-11-14T16:33:08.932Z,83.70
2018-11-14T16:35:38.338Z,83.60
2018-11-14T16:38:07.935Z,83.60
2018-11-14T16:40:37.079Z,83.80
2018-11-14T16:43:08.248Z,84.70
2018-11-14T16:45:37.481Z,83.70
2018-11-14T16:48:07.035Z,83.80
2018-11-14T16:50:36.492Z,83.70
2018-11-14T16:53:06.348Z,83.90
2018-11-14T16:55:35.585Z,83.90
2018-11-14T16:58:05.949Z,83.90
2018-11-14T17:00:35.241Z,83.90
2018-11-14T17:03:04.476Z,84.00
2018-11-14T17:05:34.648Z,84.00
2018-11-14T17:08:04.284Z,84.00
2018-11-14T17:10:33.461Z,84.00
2018-11-14T17:13:03.080Z,84.00
2018-11-14T17:15:32.343Z,83.80
2018-11-14T17:18:01.891Z,83.80
2018-11-14T17:20:31.121Z,83.90
2018-11-14T17:23:00.336Z,83.90
2018-11-14T17:25:30.711Z,83.90
2018-11-14T17:28:00.155Z,84.00
2018-11-14T17:30:29.466Z,84.00
2018-11-14T17:32:58.612Z,84.00
2018-11-14T17:35:28.021Z,84.00
2018-11-14T17:37:57.197Z,84.10
2018-11-14T17:40:27.788Z,84.10
2018-11-14T17:42:57.123Z,84.20
2018-11-14T17:45:28.690Z,84.20
2018-11-14T17:47:58.342Z,85.20
2018-11-14T17:50:29.287Z,84.20
2018-11-14T17:52:59.487Z,84.30
2018-11-14T17:55:29.697Z,84.30
2018-11-14T17:57:59.872Z,84.20
2018-11-14T18:00:30.601Z,84.30
2018-11-14T18:03:00.194Z,84.30
2018-11-14T18:05:30.370Z,84.30
2018-11-14T18:07:59.518Z,84.40
2018-11-14T18:10:30.153Z,84.40
2018-11-14T18:13:01.243Z,84.30
2018-11-14T18:15:30.416Z,84.30
2018-11-14T18:17:59.761Z,84.50
2018-11-14T18:20:30.413Z,84.50
2018-11-14T18:23:01.041Z,84.60
2018-11-14T18:25:30.621Z,84.70
2018-11-14T18:28:00.029Z,84.80
2018-11-14T18:30:30.815Z,84.70
2018-11-14T18:33:01.295Z,84.80
2018-11-14T18:35:30.839Z,84.70
2018-11-14T18:38:00.913Z,84.70
2018-11-14T18:40:31.529Z,84.80
2018-11-14T18:43:00.702Z,84.90
2018-11-14T18:45:32.685Z,85.00
2018-11-14T18:48:02.489Z,84.80
2018-11-14T18:50:31.987Z,84.80
2018-11-14T18:53:01.141Z,85.00
2018-11-14T18:55:31.806Z,84.80
2018-11-14T18:58:01.884Z,85.00
2018-11-14T19:00:32.509Z,85.00
2018-11-14T19:03:02.448Z,84.90
2018-11-14T19:05:31.759Z,84.90
2018-11-14T19:08:01.021Z,84.90
2018-11-14T19:10:32.052Z,84.90
2018-11-14T19:13:01.176Z,85.00
2018-11-14T19:15:32.801Z,84.90
2018-11-14T19:18:02.120Z,85.00
2018-11-14T19:20:32.981Z,84.90
2018-11-14T19:23:02.993Z,84.90
2018-11-14T19:25:33.589Z,84.90
2018-11-14T19:28:03.011Z,85.00
2018-11-14T19:30:33.482Z,85.10
2018-11-14T19:33:03.418Z,85.00
2018-11-14T19:35:33.850Z,85.00
2018-11-14T19:38:03.487Z,84.80
2018-11-14T19:40:33.827Z,84.90
2018-11-14T19:43:04.153Z,84.90
2018-11-14T19:45:37.077Z,84.70
2018-11-14T19:48:06.756Z,84.70
2018-11-14T19:50:36.172Z,84.70
2018-11-14T19:53:05.812Z,84.70
2018-11-14T19:55:35.668Z,84.60
2018-11-14T19:58:05.513Z,84.70
2018-11-14T20:00:37.345Z,84.70
2018-11-14T20:03:07.437Z,84.70
2018-11-14T20:05:36.697Z,84.70
2018-11-14T20:08:07.195Z,84.70
2018-11-14T20:10:36.680Z,84.50
2018-11-14T20:13:06.295Z,84.50
2018-11-14T20:15:36.550Z,84.50
2018-11-14T20:18:06.352Z,84.50
2018-11-14T20:20:36.910Z,84.60
2018-11-14T20:23:06.714Z,84.60
2018-11-14T20:25:36.093Z,84.30
2018-11-14T20:28:05.693Z,84.30
2018-11-14T20:30:36.600Z,84.30
2018-11-14T20:33:09.726Z,85.20
2018-11-14T20:35:39.300Z,84.20
2018-11-14T20:38:08.525Z,84.20
2018-11-14T20:40:39.113Z,84.20
2018-11-14T20:43:08.518Z,84.20
2018-11-14T20:45:37.720Z,84.30
2018-11-14T20:48:07.064Z,84.30
2018-11-14T20:50:36.178Z,84.20
2018-11-14T20:53:05.736Z,84.10
2018-11-14T20:55:35.835Z,84.20
2018-11-14T20:58:05.127Z,84.20
2018-11-14T21:00:36.402Z,84.20
2018-11-14T21:03:07.207Z,84.80
2018-11-14T21:05:36.504Z,84.10
2018-11-14T21:08:06.255Z,84.10
2018-11-14T21:10:35.953Z,84.30
2018-11-14T21:13:06.336Z,84.30
2018-11-14T21:15:38.083Z,84.30
2018-11-14T21:18:07.405Z,84.30
2018-11-14T21:20:36.577Z,84.40
2018-11-14T21:23:06.049Z,84.50
2018-11-14T21:25:35.218Z,84.40
2018-11-14T21:28:04.696Z,84.40
2018-11-14T21:30:33.883Z,84.40
2018-11-14T21:33:03.077Z,84.60
2018-11-14T21:35:36.728Z,84.60
2018-11-14T21:38:15.503Z,84.60
2018-11-14T21:40:49.365Z,84.70
2018-11-14T21:43:19.976Z,84.70
2018-11-14T21:45:51.301Z,84.90
2018-11-14T21:48:21.530Z,84.90
2018-11-14T21:50:52.721Z,85.10
2018-11-14T21:53:26.417Z,85.10
2018-11-14T21:55:56.958Z,85.20
2018-11-14T21:58:26.078Z,85.20
2018-11-14T22:00:55.511Z,85.10
2018-11-14T22:03:24.615Z,85.00
2018-11-14T22:05:53.773Z,84.90
2018-11-14T22:08:24.896Z,84.80
2018-11-14T22:10:54.498Z,85.80
2018-11-14T22:13:23.809Z,84.60
2018-11-14T22:15:53.741Z,85.50
2018-11-14T22:18:22.954Z,84.80
2018-11-14T22:20:52.570Z,84.70
2018-11-14T22:23:21.785Z,84.70
2018-11-14T22:25:53.016Z,84.60
2018-11-14T22:28:22.668Z,84.50
2018-11-14T22:30:52.099Z,84.50
2018-11-14T22:33:21.270Z,84.60
2018-11-14T22:35:50.738Z,84.60
2018-11-14T22:38:19.944Z,84.40
2018-11-14T22:40:49.315Z,83.70
2018-11-14T22:43:18.601Z,84.20
2018-11-14T22:45:47.833Z,84.20
2018-11-14T22:48:17.064Z,84.10
2018-11-14T22:50:48.305Z,84.10
2018-11-14T22:53:17.511Z,83.50
2018-11-14T22:55:46.911Z,83.70
2018-11-14T22:58:16.472Z,83.70
2018-11-14T23:00:46.602Z,83.80
2018-11-14T23:03:16.488Z,83.70
2018-11-14T23:05:45.969Z,83.70
2018-11-14T23:08:15.089Z,83.50
2018-11-14T23:10:44.640Z,83.10
2018-11-14T23:13:13.850Z,83.30
2018-11-14T23:15:43.148Z,83.10
2018-11-14T23:18:15.067Z,83.30
2018-11-14T23:20:44.252Z,83.40
2018-11-14T23:23:13.675Z,83.30
2018-11-14T23:25:42.709Z,83.10
2018-11-14T23:28:11.879Z,83.40
2018-11-14T23:30:41.455Z,83.60
2018-11-14T23:33:10.963Z,83.70
2018-11-14T23:35:40.799Z,83.30
2018-11-14T23:38:09.929Z,83.30
2018-11-14T23:40:39.326Z,83.30
2018-11-14T23:43:08.587Z,84.00
2018-11-14T23:45:39.055Z,83.40
2018-11-14T23:48:08.183Z,83.30
2018-11-14T23:50:37.249Z,83.30
2018-11-14T23:53:06.722Z,83.00
2018-11-14T23:55:35.888Z,83.20
2018-11-14T23:58:05.241Z,83.10
